sensor_id;sensor_type;location;lat;lon;timestamp;P1;durP1;ratioP1;P2;durP2;ratioP2
75316;SDS011;63913;51.492;10.368;2023-04-23T00:00:23;2.45;;;1.75;;
75316;SDS011;63913;51.492;10.368;2023-04-23T00:02:50;2.47;;;1.98;;
75316;SDS011;63913;51.492;10.368;2023-04-23T00:05:17;3.20;;;2.33;;
75316;SDS011;63913;51.492;10.368;2023-04-23T00:07:44;2.92;;;2.05;;
75316;SDS011;63913;51.492;10.368;2023-04-23T00:10:10;2.58;;;1.65;;
75316;SDS011;63913;51.492;10.368;2023-04-23T00:12:36;2.22;;;1.75;;
75316;SDS011;63913;51.492;10.368;2023-04-23T00:15:02;2.70;;;1.60;;
75316;SDS011;63913;51.492;10.368;2023-04-23T00:17:28;2.30;;;1.65;;
75316;SDS011;63913;51.492;10.368;2023-04-23T00:19:54;3.63;;;2.00;;
75316;SDS011;63913;51.492;10.368;2023-04-23T00:22:19;1.83;;;1.60;;
75316;SDS011;63913;51.492;10.368;2023-04-23T00:24:45;3.78;;;1.98;;
75316;SDS011;63913;51.492;10.368;2023-04-23T00:27:10;2.85;;;2.10;;
75316;SDS011;63913;51.492;10.368;2023-04-23T00:29:36;4.38;;;1.90;;
75316;SDS011;63913;51.492;10.368;2023-04-23T00:32:01;2.13;;;1.65;;
75316;SDS011;63913;51.492;10.368;2023-04-23T00:34:27;1.90;;;1.70;;
75316;SDS011;63913;51.492;10.368;2023-04-23T00:36:53;2.05;;;1.85;;
75316;SDS011;63913;51.492;10.368;2023-04-23T00:39:18;2.33;;;1.92;;
75316;SDS011;63913;51.492;10.368;2023-04-23T00:41:44;4.53;;;1.75;;
75316;SDS011;63913;51.492;10.368;2023-04-23T00:44:09;5.15;;;1.90;;
75316;SDS011;63913;51.492;10.368;2023-04-23T00:46:35;4.43;;;1.92;;
75316;SDS011;63913;51.492;10.368;2023-04-23T00:49:01;2.20;;;1.95;;
75316;SDS011;63913;51.492;10.368;2023-04-23T00:51:27;3.60;;;1.75;;
75316;SDS011;63913;51.492;10.368;2023-04-23T00:53:53;3.95;;;1.70;;
75316;SDS011;63913;51.492;10.368;2023-04-23T00:56:20;2.30;;;2.10;;
75316;SDS011;63913;51.492;10.368;2023-04-23T00:58:48;4.60;;;1.70;;
75316;SDS011;63913;51.492;10.368;2023-04-23T01:01:14;3.50;;;2.10;;
75316;SDS011;63913;51.492;10.368;2023-04-23T01:03:42;5.57;;;1.88;;
75316;SDS011;63913;51.492;10.368;2023-04-23T01:06:08;2.65;;;2.03;;
75316;SDS011;63913;51.492;10.368;2023-04-23T01:08:33;2.20;;;1.88;;
75316;SDS011;63913;51.492;10.368;2023-04-23T01:11:00;4.15;;;2.10;;
75316;SDS011;63913;51.492;10.368;2023-04-23T01:13:27;2.63;;;1.77;;
75316;SDS011;63913;51.492;10.368;2023-04-23T01:15:54;2.55;;;1.90;;
75316;SDS011;63913;51.492;10.368;2023-04-23T01:18:20;2.80;;;2.05;;
75316;SDS011;63913;51.492;10.368;2023-04-23T01:20:48;3.50;;;2.10;;
75316;SDS011;63913;51.492;10.368;2023-04-23T01:23:14;2.55;;;1.95;;
75316;SDS011;63913;51.492;10.368;2023-04-23T01:25:40;4.53;;;1.73;;
75316;SDS011;63913;51.492;10.368;2023-04-23T01:28:06;2.40;;;2.03;;
75316;SDS011;63913;51.492;10.368;2023-04-23T01:30:32;2.38;;;1.77;;
75316;SDS011;63913;51.492;10.368;2023-04-23T01:32:59;2.42;;;1.90;;
75316;SDS011;63913;51.492;10.368;2023-04-23T01:35:26;3.47;;;1.80;;
75316;SDS011;63913;51.492;10.368;2023-04-23T01:37:52;2.38;;;1.92;;
75316;SDS011;63913;51.492;10.368;2023-04-23T01:40:19;3.40;;;2.35;;
75316;SDS011;63913;51.492;10.368;2023-04-23T01:42:45;3.78;;;1.70;;
75316;SDS011;63913;51.492;10.368;2023-04-23T01:45:15;2.58;;;1.95;;
75316;SDS011;63913;51.492;10.368;2023-04-23T01:47:43;2.30;;;1.80;;
75316;SDS011;63913;51.492;10.368;2023-04-23T01:50:09;5.47;;;2.05;;
75316;SDS011;63913;51.492;10.368;2023-04-23T01:52:34;2.90;;;1.88;;
75316;SDS011;63913;51.492;10.368;2023-04-23T01:55:00;3.60;;;2.10;;
75316;SDS011;63913;51.492;10.368;2023-04-23T01:57:26;3.03;;;1.80;;
75316;SDS011;63913;51.492;10.368;2023-04-23T02:00:10;2.67;;;2.10;;
75316;SDS011;63913;51.492;10.368;2023-04-23T02:02:40;2.90;;;2.22;;
75316;SDS011;63913;51.492;10.368;2023-04-23T02:05:11;4.13;;;2.00;;
75316;SDS011;63913;51.492;10.368;2023-04-23T02:07:42;2.88;;;2.45;;
75316;SDS011;63913;51.492;10.368;2023-04-23T02:10:08;2.30;;;1.98;;
75316;SDS011;63913;51.492;10.368;2023-04-23T02:12:35;3.15;;;2.00;;
75316;SDS011;63913;51.492;10.368;2023-04-23T02:15:01;3.58;;;2.60;;
75316;SDS011;63913;51.492;10.368;2023-04-23T02:17:27;4.55;;;2.20;;
75316;SDS011;63913;51.492;10.368;2023-04-23T02:19:53;4.13;;;2.08;;
75316;SDS011;63913;51.492;10.368;2023-04-23T02:22:20;4.03;;;2.40;;
75316;SDS011;63913;51.492;10.368;2023-04-23T02:24:46;2.13;;;1.88;;
75316;SDS011;63913;51.492;10.368;2023-04-23T02:27:12;2.78;;;2.40;;
75316;SDS011;63913;51.492;10.368;2023-04-23T02:29:37;4.30;;;2.40;;
75316;SDS011;63913;51.492;10.368;2023-04-23T02:32:03;4.97;;;2.00;;
75316;SDS011;63913;51.492;10.368;2023-04-23T02:34:29;3.33;;;2.50;;
75316;SDS011;63913;51.492;10.368;2023-04-23T02:36:54;3.80;;;2.10;;
75316;SDS011;63913;51.492;10.368;2023-04-23T02:39:20;3.33;;;2.10;;
75316;SDS011;63913;51.492;10.368;2023-04-23T02:41:45;5.43;;;2.13;;
75316;SDS011;63913;51.492;10.368;2023-04-23T02:44:11;4.05;;;2.20;;
75316;SDS011;63913;51.492;10.368;2023-04-23T02:46:36;3.60;;;2.55;;
75316;SDS011;63913;51.492;10.368;2023-04-23T02:49:02;4.10;;;2.42;;
75316;SDS011;63913;51.492;10.368;2023-04-23T02:51:28;3.20;;;2.25;;
75316;SDS011;63913;51.492;10.368;2023-04-23T02:53:55;2.83;;;2.40;;
75316;SDS011;63913;51.492;10.368;2023-04-23T02:56:21;3.50;;;2.55;;
75316;SDS011;63913;51.492;10.368;2023-04-23T02:58:46;4.15;;;2.45;;
75316;SDS011;63913;51.492;10.368;2023-04-23T03:01:12;5.20;;;2.58;;
75316;SDS011;63913;51.492;10.368;2023-04-23T03:03:37;4.53;;;2.22;;
75316;SDS011;63913;51.492;10.368;2023-04-23T03:06:03;4.22;;;2.65;;
75316;SDS011;63913;51.492;10.368;2023-04-23T03:08:30;4.38;;;2.53;;
75316;SDS011;63913;51.492;10.368;2023-04-23T03:10:56;3.13;;;2.30;;
75316;SDS011;63913;51.492;10.368;2023-04-23T03:13:22;4.43;;;2.33;;
75316;SDS011;63913;51.492;10.368;2023-04-23T03:15:48;4.05;;;3.10;;
75316;SDS011;63913;51.492;10.368;2023-04-23T03:18:14;5.88;;;3.00;;
75316;SDS011;63913;51.492;10.368;2023-04-23T03:20:40;2.85;;;2.20;;
75316;SDS011;63913;51.492;10.368;2023-04-23T03:23:06;3.90;;;2.50;;
75316;SDS011;63913;51.492;10.368;2023-04-23T03:25:32;3.35;;;2.38;;
75316;SDS011;63913;51.492;10.368;2023-04-23T03:27:58;4.38;;;2.78;;
75316;SDS011;63913;51.492;10.368;2023-04-23T03:30:25;3.83;;;2.63;;
75316;SDS011;63913;51.492;10.368;2023-04-23T03:32:53;3.78;;;2.00;;
75316;SDS011;63913;51.492;10.368;2023-04-23T03:35:21;2.70;;;2.22;;
75316;SDS011;63913;51.492;10.368;2023-04-23T03:37:47;4.45;;;2.42;;
75316;SDS011;63913;51.492;10.368;2023-04-23T03:40:14;2.40;;;2.05;;
75316;SDS011;63913;51.492;10.368;2023-04-23T03:42:42;3.72;;;2.30;;
75316;SDS011;63913;51.492;10.368;2023-04-23T03:45:09;4.82;;;2.22;;
75316;SDS011;63913;51.492;10.368;2023-04-23T03:47:39;2.42;;;1.95;;
75316;SDS011;63913;51.492;10.368;2023-04-23T03:50:08;3.65;;;2.33;;
75316;SDS011;63913;51.492;10.368;2023-04-23T03:52:39;4.53;;;1.85;;
75316;SDS011;63913;51.492;10.368;2023-04-23T03:55:12;2.58;;;2.25;;
75316;SDS011;63913;51.492;10.368;2023-04-23T03:57:45;3.08;;;1.80;;
75316;SDS011;63913;51.492;10.368;2023-04-23T04:00:18;3.10;;;2.03;;
75316;SDS011;63913;51.492;10.368;2023-04-23T04:02:43;4.32;;;2.08;;
75316;SDS011;63913;51.492;10.368;2023-04-23T04:05:09;2.83;;;1.80;;
75316;SDS011;63913;51.492;10.368;2023-04-23T04:07:35;3.03;;;2.25;;
75316;SDS011;63913;51.492;10.368;2023-04-23T04:10:01;2.97;;;2.00;;
75316;SDS011;63913;51.492;10.368;2023-04-23T04:12:28;2.35;;;2.10;;
75316;SDS011;63913;51.492;10.368;2023-04-23T04:14:53;3.05;;;2.08;;
75316;SDS011;63913;51.492;10.368;2023-04-23T04:17:19;3.47;;;2.58;;
75316;SDS011;63913;51.492;10.368;2023-04-23T04:19:44;5.00;;;2.20;;
75316;SDS011;63913;51.492;10.368;2023-04-23T04:22:10;5.30;;;2.65;;
75316;SDS011;63913;51.492;10.368;2023-04-23T04:24:35;4.35;;;2.83;;
75316;SDS011;63913;51.492;10.368;2023-04-23T04:27:01;5.18;;;3.17;;
75316;SDS011;63913;51.492;10.368;2023-04-23T04:29:27;4.88;;;3.15;;
75316;SDS011;63913;51.492;10.368;2023-04-23T04:31:53;6.45;;;3.35;;
75316;SDS011;63913;51.492;10.368;2023-04-23T04:34:19;4.45;;;3.20;;
75316;SDS011;63913;51.492;10.368;2023-04-23T04:36:44;6.13;;;4.13;;
75316;SDS011;63913;51.492;10.368;2023-04-23T04:39:10;5.78;;;4.13;;
75316;SDS011;63913;51.492;10.368;2023-04-23T04:41:38;8.82;;;4.28;;
75316;SDS011;63913;51.492;10.368;2023-04-23T04:44:03;5.80;;;3.90;;
75316;SDS011;63913;51.492;10.368;2023-04-23T04:46:29;6.75;;;3.95;;
75316;SDS011;63913;51.492;10.368;2023-04-23T04:48:55;8.95;;;4.60;;
75316;SDS011;63913;51.492;10.368;2023-04-23T04:51:21;5.60;;;4.13;;
75316;SDS011;63913;51.492;10.368;2023-04-23T04:53:46;5.95;;;3.88;;
75316;SDS011;63913;51.492;10.368;2023-04-23T04:56:12;5.85;;;3.65;;
75316;SDS011;63913;51.492;10.368;2023-04-23T04:58:37;6.17;;;4.10;;
75316;SDS011;63913;51.492;10.368;2023-04-23T05:01:03;6.80;;;3.92;;
75316;SDS011;63913;51.492;10.368;2023-04-23T05:03:29;6.43;;;4.53;;
75316;SDS011;63913;51.492;10.368;2023-04-23T05:05:55;7.85;;;4.07;;
75316;SDS011;63913;51.492;10.368;2023-04-23T05:08:22;7.32;;;3.92;;
75316;SDS011;63913;51.492;10.368;2023-04-23T05:10:47;6.13;;;3.80;;
75316;SDS011;63913;51.492;10.368;2023-04-23T05:13:14;6.85;;;4.30;;
75316;SDS011;63913;51.492;10.368;2023-04-23T05:15:40;6.57;;;4.20;;
75316;SDS011;63913;51.492;10.368;2023-04-23T05:18:05;7.63;;;4.20;;
75316;SDS011;63913;51.492;10.368;2023-04-23T05:20:31;6.18;;;4.22;;
75316;SDS011;63913;51.492;10.368;2023-04-23T05:22:57;8.18;;;4.50;;
75316;SDS011;63913;51.492;10.368;2023-04-23T05:25:26;6.80;;;3.83;;
75316;SDS011;63913;51.492;10.368;2023-04-23T05:27:51;6.78;;;4.60;;
75316;SDS011;63913;51.492;10.368;2023-04-23T05:30:17;7.30;;;4.53;;
75316;SDS011;63913;51.492;10.368;2023-04-23T05:32:42;7.53;;;4.63;;
75316;SDS011;63913;51.492;10.368;2023-04-23T05:35:08;7.20;;;4.18;;
75316;SDS011;63913;51.492;10.368;2023-04-23T05:37:33;8.68;;;5.25;;
75316;SDS011;63913;51.492;10.368;2023-04-23T05:39:59;8.02;;;4.32;;
75316;SDS011;63913;51.492;10.368;2023-04-23T05:42:24;9.15;;;5.57;;
75316;SDS011;63913;51.492;10.368;2023-04-23T05:44:50;8.13;;;5.40;;
75316;SDS011;63913;51.492;10.368;2023-04-23T05:47:15;7.55;;;4.80;;
75316;SDS011;63913;51.492;10.368;2023-04-23T05:49:41;9.68;;;5.47;;
75316;SDS011;63913;51.492;10.368;2023-04-23T05:52:06;7.20;;;4.93;;
75316;SDS011;63913;51.492;10.368;2023-04-23T05:54:32;8.60;;;5.07;;
75316;SDS011;63913;51.492;10.368;2023-04-23T05:56:57;11.10;;;6.53;;
75316;SDS011;63913;51.492;10.368;2023-04-23T05:59:22;8.98;;;5.63;;
75316;SDS011;63913;51.492;10.368;2023-04-23T06:01:48;11.20;;;6.03;;
75316;SDS011;63913;51.492;10.368;2023-04-23T06:04:14;11.68;;;6.53;;
75316;SDS011;63913;51.492;10.368;2023-04-23T06:06:41;11.55;;;6.95;;
75316;SDS011;63913;51.492;10.368;2023-04-23T06:09:07;12.35;;;6.90;;
75316;SDS011;63913;51.492;10.368;2023-04-23T06:11:32;11.20;;;6.05;;
75316;SDS011;63913;51.492;10.368;2023-04-23T06:14:00;10.52;;;6.15;;
75316;SDS011;63913;51.492;10.368;2023-04-23T06:16:25;13.18;;;6.40;;
75316;SDS011;63913;51.492;10.368;2023-04-23T06:18:51;13.27;;;7.57;;
75316;SDS011;63913;51.492;10.368;2023-04-23T06:21:16;11.85;;;6.40;;
75316;SDS011;63913;51.492;10.368;2023-04-23T06:23:41;14.38;;;7.10;;
75316;SDS011;63913;51.492;10.368;2023-04-23T06:26:07;10.88;;;6.57;;
75316;SDS011;63913;51.492;10.368;2023-04-23T06:28:32;11.55;;;6.82;;
75316;SDS011;63913;51.492;10.368;2023-04-23T06:31:24;14.00;;;6.95;;
75316;SDS011;63913;51.492;10.368;2023-04-23T06:33:50;12.10;;;6.85;;
75316;SDS011;63913;51.492;10.368;2023-04-23T06:36:15;12.52;;;7.30;;
75316;SDS011;63913;51.492;10.368;2023-04-23T06:38:41;11.65;;;7.05;;
75316;SDS011;63913;51.492;10.368;2023-04-23T06:41:06;10.48;;;6.60;;
75316;SDS011;63913;51.492;10.368;2023-04-23T06:43:32;10.57;;;6.90;;
75316;SDS011;63913;51.492;10.368;2023-04-23T06:46:16;10.80;;;6.45;;
75316;SDS011;63913;51.492;10.368;2023-04-23T06:48:41;11.65;;;6.05;;
75316;SDS011;63913;51.492;10.368;2023-04-23T06:51:07;10.10;;;5.60;;
75316;SDS011;63913;51.492;10.368;2023-04-23T06:53:33;11.18;;;6.50;;
75316;SDS011;63913;51.492;10.368;2023-04-23T06:55:58;10.95;;;6.65;;
75316;SDS011;63913;51.492;10.368;2023-04-23T06:58:24;9.65;;;6.25;;
75316;SDS011;63913;51.492;10.368;2023-04-23T07:00:55;9.27;;;6.15;;
75316;SDS011;63913;51.492;10.368;2023-04-23T07:03:26;10.80;;;5.70;;
75316;SDS011;63913;51.492;10.368;2023-04-23T07:05:52;8.60;;;4.47;;
75316;SDS011;63913;51.492;10.368;2023-04-23T07:08:18;6.90;;;4.40;;
75316;SDS011;63913;51.492;10.368;2023-04-23T07:10:45;6.43;;;4.30;;
75316;SDS011;63913;51.492;10.368;2023-04-23T07:13:10;7.93;;;4.32;;
75316;SDS011;63913;51.492;10.368;2023-04-23T07:15:36;7.22;;;4.60;;
75316;SDS011;63913;51.492;10.368;2023-04-23T07:18:02;5.70;;;3.90;;
75316;SDS011;63913;51.492;10.368;2023-04-23T07:20:27;5.35;;;3.72;;
75316;SDS011;63913;51.492;10.368;2023-04-23T07:22:53;6.85;;;4.07;;
75316;SDS011;63913;51.492;10.368;2023-04-23T07:25:18;6.85;;;4.03;;
75316;SDS011;63913;51.492;10.368;2023-04-23T07:27:45;6.75;;;3.78;;
75316;SDS011;63913;51.492;10.368;2023-04-23T07:30:10;7.85;;;5.00;;
75316;SDS011;63913;51.492;10.368;2023-04-23T07:32:36;6.93;;;3.90;;
75316;SDS011;63913;51.492;10.368;2023-04-23T07:35:02;6.65;;;4.45;;
75316;SDS011;63913;51.492;10.368;2023-04-23T07:37:28;4.93;;;3.42;;
75316;SDS011;63913;51.492;10.368;2023-04-23T07:39:54;6.03;;;3.78;;
75316;SDS011;63913;51.492;10.368;2023-04-23T07:42:19;5.95;;;3.95;;
75316;SDS011;63913;51.492;10.368;2023-04-23T07:44:45;4.53;;;3.40;;
75316;SDS011;63913;51.492;10.368;2023-04-23T07:47:10;4.30;;;3.22;;
75316;SDS011;63913;51.492;10.368;2023-04-23T07:49:35;3.58;;;2.80;;
75316;SDS011;63913;51.492;10.368;2023-04-23T07:52:01;4.15;;;2.70;;
75316;SDS011;63913;51.492;10.368;2023-04-23T07:54:26;4.32;;;2.90;;
75316;SDS011;63913;51.492;10.368;2023-04-23T07:56:51;3.92;;;3.05;;
75316;SDS011;63913;51.492;10.368;2023-04-23T07:59:17;3.93;;;2.67;;
75316;SDS011;63913;51.492;10.368;2023-04-23T08:01:42;2.45;;;2.20;;
75316;SDS011;63913;51.492;10.368;2023-04-23T08:04:08;4.55;;;2.50;;
75316;SDS011;63913;51.492;10.368;2023-04-23T08:06:35;2.53;;;2.10;;
75316;SDS011;63913;51.492;10.368;2023-04-23T08:09:01;3.83;;;2.78;;
75316;SDS011;63913;51.492;10.368;2023-04-23T08:11:30;4.07;;;2.92;;
75316;SDS011;63913;51.492;10.368;2023-04-23T08:13:57;3.13;;;2.30;;
75316;SDS011;63913;51.492;10.368;2023-04-23T08:16:22;3.45;;;2.47;;
75316;SDS011;63913;51.492;10.368;2023-04-23T08:18:48;3.25;;;2.50;;
75316;SDS011;63913;51.492;10.368;2023-04-23T08:21:13;3.75;;;2.47;;
75316;SDS011;63913;51.492;10.368;2023-04-23T08:23:38;2.55;;;2.20;;
75316;SDS011;63913;51.492;10.368;2023-04-23T08:26:04;3.15;;;2.42;;
75316;SDS011;63913;51.492;10.368;2023-04-23T08:28:29;3.05;;;2.25;;
75316;SDS011;63913;51.492;10.368;2023-04-23T08:30:55;2.75;;;2.20;;
75316;SDS011;63913;51.492;10.368;2023-04-23T08:33:20;3.92;;;2.50;;
75316;SDS011;63913;51.492;10.368;2023-04-23T08:35:46;2.33;;;1.98;;
75316;SDS011;63913;51.492;10.368;2023-04-23T08:38:12;2.55;;;2.28;;
75316;SDS011;63913;51.492;10.368;2023-04-23T08:40:37;2.25;;;1.85;;
75316;SDS011;63913;51.492;10.368;2023-04-23T08:43:12;4.68;;;2.13;;
75316;SDS011;63913;51.492;10.368;2023-04-23T08:45:41;4.15;;;2.10;;
75316;SDS011;63913;51.492;10.368;2023-04-23T08:48:10;2.25;;;2.03;;
75316;SDS011;63913;51.492;10.368;2023-04-23T08:50:37;1.65;;;1.55;;
75316;SDS011;63913;51.492;10.368;2023-04-23T08:53:06;1.90;;;1.60;;
75316;SDS011;63913;51.492;10.368;2023-04-23T08:55:32;2.17;;;1.70;;
75316;SDS011;63913;51.492;10.368;2023-04-23T08:57:59;1.52;;;1.35;;
75316;SDS011;63913;51.492;10.368;2023-04-23T09:00:29;1.73;;;1.55;;
75316;SDS011;63913;51.492;10.368;2023-04-23T09:02:54;2.30;;;1.88;;
75316;SDS011;63913;51.492;10.368;2023-04-23T09:05:22;2.00;;;1.80;;
75316;SDS011;63913;51.492;10.368;2023-04-23T09:08:06;2.65;;;2.20;;
75316;SDS011;63913;51.492;10.368;2023-04-23T09:10:41;1.77;;;1.67;;
75316;SDS011;63913;51.492;10.368;2023-04-23T09:13:23;1.77;;;1.58;;
75316;SDS011;63913;51.492;10.368;2023-04-23T09:15:53;2.92;;;1.50;;
75316;SDS011;63913;51.492;10.368;2023-04-23T09:18:19;2.20;;;1.75;;
75316;SDS011;63913;51.492;10.368;2023-04-23T09:20:44;1.85;;;1.73;;
75316;SDS011;63913;51.492;10.368;2023-04-23T09:23:12;2.22;;;1.80;;
75316;SDS011;63913;51.492;10.368;2023-04-23T09:25:38;1.90;;;1.70;;
75316;SDS011;63913;51.492;10.368;2023-04-23T09:28:05;1.75;;;1.50;;
75316;SDS011;63913;51.492;10.368;2023-04-23T09:30:37;2.13;;;1.30;;
75316;SDS011;63913;51.492;10.368;2023-04-23T09:33:10;2.40;;;1.30;;
75316;SDS011;63913;51.492;10.368;2023-04-23T09:35:36;1.40;;;1.30;;
75316;SDS011;63913;51.492;10.368;2023-04-23T09:38:02;2.38;;;1.60;;
75316;SDS011;63913;51.492;10.368;2023-04-23T09:40:32;1.60;;;1.40;;
75316;SDS011;63913;51.492;10.368;2023-04-23T09:43:00;1.65;;;1.23;;
75316;SDS011;63913;51.492;10.368;2023-04-23T09:45:28;2.10;;;1.63;;
75316;SDS011;63913;51.492;10.368;2023-04-23T09:47:55;1.95;;;1.58;;
75316;SDS011;63913;51.492;10.368;2023-04-23T09:50:35;2.20;;;1.58;;
75316;SDS011;63913;51.492;10.368;2023-04-23T09:53:04;2.13;;;1.55;;
75316;SDS011;63913;51.492;10.368;2023-04-23T09:55:32;2.00;;;1.60;;
75316;SDS011;63913;51.492;10.368;2023-04-23T09:58:12;3.45;;;2.30;;
75316;SDS011;63913;51.492;10.368;2023-04-23T10:00:42;2.60;;;1.73;;
75316;SDS011;63913;51.492;10.368;2023-04-23T10:03:07;1.67;;;1.58;;
75316;SDS011;63913;51.492;10.368;2023-04-23T10:05:41;1.67;;;1.48;;
75316;SDS011;63913;51.492;10.368;2023-04-23T10:08:07;2.17;;;1.58;;
75316;SDS011;63913;51.492;10.368;2023-04-23T10:10:33;2.33;;;1.40;;
75316;SDS011;63913;51.492;10.368;2023-04-23T10:13:00;1.88;;;1.67;;
75316;SDS011;63913;51.492;10.368;2023-04-23T10:15:27;2.25;;;1.63;;
75316;SDS011;63913;51.492;10.368;2023-04-23T10:17:54;5.47;;;1.70;;
75316;SDS011;63913;51.492;10.368;2023-04-23T10:20:21;1.60;;;1.50;;
75316;SDS011;63913;51.492;10.368;2023-04-23T10:22:47;3.70;;;1.70;;
75316;SDS011;63913;51.492;10.368;2023-04-23T10:25:13;2.67;;;1.77;;
75316;SDS011;63913;51.492;10.368;2023-04-23T10:27:43;2.53;;;2.00;;
75316;SDS011;63913;51.492;10.368;2023-04-23T10:30:12;2.20;;;1.75;;
75316;SDS011;63913;51.492;10.368;2023-04-23T10:33:01;2.42;;;1.63;;
75316;SDS011;63913;51.492;10.368;2023-04-23T10:35:30;1.52;;;1.42;;
75316;SDS011;63913;51.492;10.368;2023-04-23T10:37:56;2.35;;;1.92;;
75316;SDS011;63913;51.492;10.368;2023-04-23T10:40:27;2.15;;;1.70;;
75316;SDS011;63913;51.492;10.368;2023-04-23T10:42:55;2.10;;;1.50;;
75316;SDS011;63913;51.492;10.368;2023-04-23T10:45:21;2.45;;;1.60;;
75316;SDS011;63913;51.492;10.368;2023-04-23T10:47:47;2.03;;;1.80;;
75316;SDS011;63913;51.492;10.368;2023-04-23T10:50:20;1.73;;;1.60;;
75316;SDS011;63913;51.492;10.368;2023-04-23T10:52:50;2.83;;;1.60;;
75316;SDS011;63913;51.492;10.368;2023-04-23T10:55:18;1.70;;;1.40;;
75316;SDS011;63913;51.492;10.368;2023-04-23T10:58:04;1.42;;;1.30;;
75316;SDS011;63913;51.492;10.368;2023-04-23T11:05:55;1.83;;;1.40;;
75316;SDS011;63913;51.492;10.368;2023-04-23T11:08:20;2.47;;;1.55;;
75316;SDS011;63913;51.492;10.368;2023-04-23T11:10:55;2.13;;;1.40;;
75316;SDS011;63913;51.492;10.368;2023-04-23T11:13:23;2.53;;;1.25;;
75316;SDS011;63913;51.492;10.368;2023-04-23T11:18:53;1.40;;;1.30;;
75316;SDS011;63913;51.492;10.368;2023-04-23T11:24:28;2.22;;;1.30;;
75316;SDS011;63913;51.492;10.368;2023-04-23T11:27:13;2.25;;;1.35;;
75316;SDS011;63913;51.492;10.368;2023-04-23T11:29:40;1.70;;;1.40;;
75316;SDS011;63913;51.492;10.368;2023-04-23T11:32:07;3.08;;;1.45;;
75316;SDS011;63913;51.492;10.368;2023-04-23T11:34:44;1.27;;;1.17;;
75316;SDS011;63913;51.492;10.368;2023-04-23T11:37:14;2.45;;;1.20;;
75316;SDS011;63913;51.492;10.368;2023-04-23T11:39:41;1.00;;;1.00;;
75316;SDS011;63913;51.492;10.368;2023-04-23T11:42:14;1.70;;;1.25;;
75316;SDS011;63913;51.492;10.368;2023-04-23T11:44:41;1.92;;;1.40;;
75316;SDS011;63913;51.492;10.368;2023-04-23T11:47:08;1.58;;;1.30;;
75316;SDS011;63913;51.492;10.368;2023-04-23T11:49:36;2.08;;;1.42;;
75316;SDS011;63913;51.492;10.368;2023-04-23T11:52:05;2.78;;;1.23;;
75316;SDS011;63913;51.492;10.368;2023-04-23T11:54:30;1.40;;;1.30;;
75316;SDS011;63913;51.492;10.368;2023-04-23T11:56:57;2.72;;;1.00;;
75316;SDS011;63913;51.492;10.368;2023-04-23T11:59:23;1.85;;;1.10;;
75316;SDS011;63913;51.492;10.368;2023-04-23T12:01:50;1.70;;;1.30;;
75316;SDS011;63913;51.492;10.368;2023-04-23T12:04:19;1.42;;;1.33;;
75316;SDS011;63913;51.492;10.368;2023-04-23T12:06:46;1.73;;;1.42;;
75316;SDS011;63913;51.492;10.368;2023-04-23T12:09:13;1.77;;;1.20;;
75316;SDS011;63913;51.492;10.368;2023-04-23T12:11:40;3.05;;;1.15;;
75316;SDS011;63913;51.492;10.368;2023-04-23T12:14:06;3.65;;;1.40;;
75316;SDS011;63913;51.492;10.368;2023-04-23T12:22:08;2.78;;;1.75;;
75316;SDS011;63913;51.492;10.368;2023-04-23T12:24:55;1.30;;;1.20;;
75316;SDS011;63913;51.492;10.368;2023-04-23T12:27:19;1.65;;;1.20;;
75316;SDS011;63913;51.492;10.368;2023-04-23T12:29:48;1.38;;;1.27;;
75316;SDS011;63913;51.492;10.368;2023-04-23T12:32:23;1.73;;;1.50;;
75316;SDS011;63913;51.492;10.368;2023-04-23T12:34:54;2.40;;;1.70;;
75316;SDS011;63913;51.492;10.368;2023-04-23T12:37:23;2.58;;;1.55;;
75316;SDS011;63913;51.492;10.368;2023-04-23T12:39:50;1.67;;;1.55;;
75316;SDS011;63913;51.492;10.368;2023-04-23T12:42:17;2.03;;;1.30;;
75316;SDS011;63913;51.492;10.368;2023-04-23T12:44:42;1.77;;;1.50;;
75316;SDS011;63913;51.492;10.368;2023-04-23T12:47:08;1.67;;;1.40;;
75316;SDS011;63913;51.492;10.368;2023-04-23T12:49:39;1.50;;;1.40;;
75316;SDS011;63913;51.492;10.368;2023-04-23T12:52:07;1.55;;;1.45;;
75316;SDS011;63913;51.492;10.368;2023-04-23T12:54:33;1.85;;;1.50;;
75316;SDS011;63913;51.492;10.368;2023-04-23T12:57:03;1.80;;;1.45;;
75316;SDS011;63913;51.492;10.368;2023-04-23T12:59:30;2.65;;;1.75;;
75316;SDS011;63913;51.492;10.368;2023-04-23T13:01:56;1.50;;;1.40;;
75316;SDS011;63913;51.492;10.368;2023-04-23T13:04:26;2.90;;;2.00;;
75316;SDS011;63913;51.492;10.368;2023-04-23T13:06:54;2.28;;;1.75;;
75316;SDS011;63913;51.492;10.368;2023-04-23T13:09:20;1.60;;;1.42;;
75316;SDS011;63913;51.492;10.368;2023-04-23T13:11:46;1.75;;;1.40;;
75316;SDS011;63913;51.492;10.368;2023-04-23T13:14:13;2.08;;;1.50;;
75316;SDS011;63913;51.492;10.368;2023-04-23T13:16:39;1.92;;;1.20;;
75316;SDS011;63913;51.492;10.368;2023-04-23T13:19:09;1.38;;;1.15;;
75316;SDS011;63913;51.492;10.368;2023-04-23T13:21:34;4.82;;;1.30;;
75316;SDS011;63913;51.492;10.368;2023-04-23T13:24:00;1.40;;;1.30;;
75316;SDS011;63913;51.492;10.368;2023-04-23T13:26:26;2.13;;;1.48;;
75316;SDS011;63913;51.492;10.368;2023-04-23T13:31:21;1.65;;;1.55;;
75316;SDS011;63913;51.492;10.368;2023-04-23T13:33:46;3.10;;;1.52;;
75316;SDS011;63913;51.492;10.368;2023-04-23T13:36:12;2.05;;;1.65;;
75316;SDS011;63913;51.492;10.368;2023-04-23T13:38:37;1.60;;;1.50;;
75316;SDS011;63913;51.492;10.368;2023-04-23T13:41:02;3.03;;;1.60;;
75316;SDS011;63913;51.492;10.368;2023-04-23T13:43:28;1.83;;;1.40;;
75316;SDS011;63913;51.492;10.368;2023-04-23T13:45:54;2.45;;;1.50;;
75316;SDS011;63913;51.492;10.368;2023-04-23T13:48:19;1.50;;;1.20;;
75316;SDS011;63913;51.492;10.368;2023-04-23T13:50:45;1.65;;;1.20;;
75316;SDS011;63913;51.492;10.368;2023-04-23T13:53:10;1.40;;;1.30;;
75316;SDS011;63913;51.492;10.368;2023-04-23T13:55:36;1.67;;;1.40;;
75316;SDS011;63913;51.492;10.368;2023-04-23T13:58:02;1.55;;;1.38;;
75316;SDS011;63913;51.492;10.368;2023-04-23T14:00:28;1.70;;;1.60;;
75316;SDS011;63913;51.492;10.368;2023-04-23T14:02:54;1.35;;;1.20;;
75316;SDS011;63913;51.492;10.368;2023-04-23T14:05:20;1.40;;;1.30;;
75316;SDS011;63913;51.492;10.368;2023-04-23T14:07:45;1.50;;;1.40;;
75316;SDS011;63913;51.492;10.368;2023-04-23T14:10:11;1.27;;;1.17;;
75316;SDS011;63913;51.492;10.368;2023-04-23T14:12:37;2.70;;;1.52;;
75316;SDS011;63913;51.492;10.368;2023-04-23T14:15:06;1.85;;;1.50;;
75316;SDS011;63913;51.492;10.368;2023-04-23T14:17:33;2.65;;;1.30;;
75316;SDS011;63913;51.492;10.368;2023-04-23T14:19:59;2.05;;;1.90;;
75316;SDS011;63913;51.492;10.368;2023-04-23T14:22:24;2.72;;;1.33;;
75316;SDS011;63913;51.492;10.368;2023-04-23T14:24:50;2.28;;;1.38;;
75316;SDS011;63913;51.492;10.368;2023-04-23T14:27:21;2.40;;;1.50;;
75316;SDS011;63913;51.492;10.368;2023-04-23T14:30:05;3.58;;;1.60;;
75316;SDS011;63913;51.492;10.368;2023-04-23T14:32:39;2.22;;;1.52;;
75316;SDS011;63913;51.492;10.368;2023-04-23T14:35:05;3.17;;;1.30;;
75316;SDS011;63913;51.492;10.368;2023-04-23T14:37:31;1.58;;;1.40;;
75316;SDS011;63913;51.492;10.368;2023-04-23T14:39:56;1.80;;;1.50;;
75316;SDS011;63913;51.492;10.368;2023-04-23T14:42:21;1.63;;;1.52;;
75316;SDS011;63913;51.492;10.368;2023-04-23T14:44:47;1.73;;;1.50;;
75316;SDS011;63913;51.492;10.368;2023-04-23T14:47:12;3.55;;;1.80;;
75316;SDS011;63913;51.492;10.368;2023-04-23T14:49:38;1.73;;;1.02;;
75316;SDS011;63913;51.492;10.368;2023-04-23T14:52:05;1.70;;;1.35;;